EDDC/DRS METAR and TAF weather

Enter ICAO airport designator
Station Type Date Time Source
EDDC METAR 2024/02/26 18:20 UTC NOAA

EDDC 261820Z AUTO 34001KT 9999 FEW028 BKN035 08/04 Q1007 NOSIG


Station Type Date Time Source
EDDC Decoded METAR 2024/02/26 18:20 UTC NOAA

Dresden-Klotzsche, Germany (EDDC) 51-08N 013-45E 232M
Feb 26, 2024 - 01:20 PM EST / 2024.02.26 1820 UTC
Wind: from the NNW (340 degrees) at 1 MPH (1 KT):0
Visibility: greater than 7 mile(s):0
Sky conditions: mostly cloudy
Temperature: 46 F (8 C)
Dew Point: 39 F (4 C)
Relative Humidity: 75%
Pressure (altimeter): 29.74 in. Hg (1007 hPa)
ob: EDDC 261820Z AUTO 34001KT 9999 FEW028 BKN035 08/04 Q1007 NOSIG
cycle: 18

Station Type Date Time Source
EDDC TAF 2024/02/26 18:41 UTC NOAA